createdAt,value
2019-04-05T00:02:18.778Z,30.60
2019-04-05T00:04:53.137Z,30.70
2019-04-05T00:07:27.547Z,30.90
2019-04-05T00:10:03.427Z,31.00
2019-04-05T00:12:37.738Z,31.20
2019-04-05T00:15:15.781Z,31.30
2019-04-05T00:17:48.540Z,31.40
2019-04-05T00:20:22.759Z,31.60
2019-04-05T00:22:57.321Z,31.70
2019-04-05T00:25:38.017Z,31.80
2019-04-05T00:28:13.854Z,32.00
2019-04-05T00:30:48.219Z,32.30
2019-04-05T00:33:22.900Z,32.60
2019-04-05T00:35:57.415Z,33.00
2019-04-05T00:38:31.757Z,33.30
2019-04-05T00:41:06.379Z,33.50
2019-04-05T00:43:40.711Z,33.70
2019-04-05T00:46:15.433Z,33.80
2019-04-05T00:48:50.807Z,33.90
2019-04-05T00:51:25.637Z,33.90
2019-04-05T00:53:59.731Z,34.00
2019-04-05T00:56:34.534Z,34.00
2019-04-05T00:59:11.040Z,34.10
2019-04-05T01:01:47.232Z,34.10
2019-04-05T01:04:22.607Z,34.10
2019-04-05T01:06:58.187Z,34.20
2019-04-05T01:09:33.030Z,34.20
2019-04-05T01:12:07.543Z,34.20
2019-04-05T01:14:42.399Z,34.20
2019-04-05T01:17:24.846Z,34.30
2019-04-05T01:19:53.003Z,34.30
2019-04-05T01:22:30.691Z,34.40
2019-04-05T01:25:09.430Z,34.40
2019-04-05T01:27:44.199Z,34.40
2019-04-05T01:30:37.137Z,34.50
2019-04-05T01:33:11.765Z,34.60
2019-04-05T01:35:46.358Z,34.60
2019-04-05T01:38:22.100Z,34.60
2019-04-05T01:40:56.405Z,34.70
2019-04-05T01:43:30.716Z,34.80
2019-04-05T01:46:06.558Z,34.90
2019-04-05T01:48:41.371Z,34.90
2019-04-05T01:51:18.486Z,35.00
2019-04-05T01:53:52.840Z,35.10
2019-04-05T01:56:27.279Z,35.10
2019-04-05T01:59:02.855Z,35.20
2019-04-05T02:01:37.300Z,35.20
2019-04-05T02:04:12.504Z,35.20
2019-04-05T02:06:48.637Z,35.20
2019-04-05T02:09:23.735Z,35.30
2019-04-05T02:11:58.237Z,35.30
2019-04-05T02:14:32.382Z,35.30
2019-04-05T02:17:07.143Z,35.30
2019-04-05T02:19:41.782Z,35.30
2019-04-05T02:22:16.738Z,35.40
2019-04-05T02:24:51.494Z,35.50
2019-04-05T02:27:25.596Z,35.50
2019-04-05T02:30:03.336Z,35.50
2019-04-05T02:32:38.085Z,35.60
2019-04-05T02:35:13.816Z,35.60
2019-04-05T02:37:49.581Z,35.70
2019-04-05T02:40:24.825Z,35.80
2019-04-05T02:42:59.303Z,35.80
2019-04-05T02:45:34.975Z,35.80
2019-04-05T02:48:10.489Z,35.90
2019-04-05T02:50:49.301Z,35.90
2019-04-05T02:53:24.771Z,36.00
2019-04-05T02:56:02.916Z,36.10
2019-04-05T02:58:37.871Z,36.10
2019-04-05T03:01:13.825Z,36.20
2019-04-05T03:04:08.533Z,36.20
2019-04-05T03:06:45.624Z,36.30
2019-04-05T03:09:21.937Z,36.40
2019-04-05T03:12:18.947Z,36.40
2019-04-05T03:14:53.220Z,36.50
2019-04-05T03:17:27.495Z,36.60
2019-04-05T03:20:02.373Z,36.60
2019-04-05T03:22:36.986Z,36.70
2019-04-05T03:25:11.198Z,36.70
2019-04-05T03:27:45.657Z,36.80
2019-04-05T03:30:20.391Z,36.80
2019-04-05T03:32:55.470Z,36.80
2019-04-05T03:35:30.832Z,36.90
2019-04-05T03:38:06.210Z,36.90
2019-04-05T03:40:40.923Z,36.90
2019-04-05T03:43:15.590Z,36.90
2019-04-05T03:45:50.517Z,36.90
2019-04-05T03:48:25.223Z,36.90
2019-04-05T03:51:00.273Z,36.90
2019-04-05T03:53:54.496Z,36.90
2019-04-05T03:56:30.094Z,36.90
2019-04-05T03:59:04.613Z,36.90
2019-04-05T04:01:40.009Z,37.00
2019-04-05T04:04:14.929Z,37.00
2019-04-05T04:06:48.837Z,37.00
2019-04-05T04:09:24.725Z,37.00
2019-04-05T04:11:59.358Z,37.10
2019-04-05T04:14:33.878Z,37.10
2019-04-05T04:17:12.768Z,37.20
2019-04-05T04:19:44.074Z,37.20
2019-04-05T04:22:34.354Z,37.20
2019-04-05T04:25:09.050Z,37.20
2019-04-05T04:27:43.244Z,37.30
2019-04-05T04:30:18.231Z,37.30
2019-04-05T04:32:53.355Z,37.30
2019-04-05T04:35:27.995Z,37.30
2019-04-05T04:38:21.577Z,37.40
2019-04-05T04:40:56.497Z,37.40
2019-04-05T04:43:30.973Z,37.50
2019-04-05T04:46:05.270Z,37.50
2019-04-05T04:48:42.589Z,37.60
2019-04-05T04:51:17.275Z,37.60
2019-04-05T04:53:52.090Z,37.60
2019-04-05T04:56:27.304Z,37.70
2019-04-05T04:59:01.781Z,37.60
2019-04-05T05:01:38.873Z,37.70
2019-04-05T05:04:14.187Z,37.80
2019-04-05T05:06:51.065Z,37.80
2019-04-05T05:09:25.571Z,37.80
2019-04-05T05:12:00.260Z,37.80
2019-04-05T05:14:35.046Z,37.80
2019-04-05T05:17:09.533Z,37.80
2019-04-05T05:19:44.944Z,37.80
2019-04-05T05:22:19.334Z,37.80
2019-04-05T05:24:53.882Z,37.80
2019-04-05T05:27:29.685Z,37.80
2019-04-05T05:30:04.420Z,37.70
2019-04-05T05:32:40.133Z,37.70
2019-04-05T05:35:21.542Z,37.70
2019-04-05T05:37:57.698Z,37.70
2019-04-05T05:40:35.297Z,37.80
2019-04-05T05:43:08.354Z,37.70
2019-04-05T05:45:43.794Z,37.70
2019-04-05T05:48:26.398Z,37.80
2019-04-05T05:51:02.108Z,37.90
2019-04-05T05:53:37.148Z,37.90
2019-04-05T05:56:12.443Z,38.00
2019-04-05T05:58:47.081Z,37.90
2019-04-05T06:01:21.626Z,38.00
2019-04-05T06:03:58.380Z,38.10
2019-04-05T06:06:32.885Z,38.10
2019-04-05T06:09:08.580Z,38.10
2019-04-05T06:11:43.083Z,38.00
2019-04-05T06:14:17.744Z,38.00
2019-04-05T06:16:52.713Z,37.90
2019-04-05T06:19:27.393Z,37.90
2019-04-05T06:22:02.910Z,37.80
2019-04-05T06:24:38.664Z,37.80
2019-04-05T06:27:12.914Z,37.70
2019-04-05T06:29:49.338Z,37.70
2019-04-05T06:32:25.206Z,37.60
2019-04-05T06:34:59.495Z,37.50
2019-04-05T06:37:34.805Z,37.40
2019-04-05T06:40:09.860Z,37.40
2019-04-05T06:42:44.622Z,37.30
2019-04-05T06:45:19.401Z,37.20
2019-04-05T06:47:54.380Z,37.20
2019-04-05T06:50:31.242Z,37.20
2019-04-05T06:53:05.682Z,37.20
2019-04-05T06:55:40.314Z,37.20
2019-04-05T06:58:19.778Z,37.20
2019-04-05T07:00:57.214Z,37.10
2019-04-05T07:03:28.023Z,37.10
2019-04-05T07:06:02.703Z,37.10
2019-04-05T07:08:37.592Z,37.20
2019-04-05T07:11:11.943Z,37.20
2019-04-05T07:13:47.005Z,37.20
2019-04-05T07:16:25.853Z,37.20
2019-04-05T07:19:02.464Z,37.20
2019-04-05T07:21:38.123Z,37.20
2019-04-05T07:24:13.211Z,37.20
2019-04-05T07:26:47.778Z,37.30
2019-04-05T07:29:22.382Z,37.40
2019-04-05T07:31:58.037Z,37.40
2019-04-05T07:34:33.454Z,37.50
2019-04-05T07:37:07.989Z,37.60
2019-04-05T07:39:42.578Z,37.60
2019-04-05T07:42:16.719Z,37.70
2019-04-05T07:44:51.872Z,37.70
2019-04-05T07:47:27.246Z,37.80
2019-04-05T07:50:01.472Z,37.80
2019-04-05T07:52:38.136Z,37.80
2019-04-05T07:55:12.701Z,37.90
2019-04-05T07:57:48.463Z,37.90
2019-04-05T08:00:44.580Z,37.90
2019-04-05T08:03:37.023Z,37.90
2019-04-05T08:06:12.460Z,37.80
2019-04-05T08:09:09.691Z,37.90
2019-04-05T08:11:45.234Z,37.90
2019-04-05T08:14:20.104Z,37.80
2019-04-05T08:16:54.616Z,37.80
2019-04-05T08:19:29.510Z,37.80
2019-04-05T08:22:04.067Z,37.80
2019-04-05T08:24:39.314Z,37.80
2019-04-05T08:27:14.988Z,37.80
2019-04-05T08:29:49.442Z,37.80
2019-04-05T08:32:24.086Z,37.80
2019-04-05T08:34:58.772Z,37.80
2019-04-05T08:37:33.226Z,37.80
2019-04-05T08:40:08.022Z,37.70
2019-04-05T08:42:42.680Z,37.70
2019-04-05T08:45:17.212Z,37.70
2019-04-05T08:47:51.718Z,37.70
2019-04-05T08:50:28.168Z,37.70
2019-04-05T08:53:02.583Z,37.70
2019-04-05T08:55:37.061Z,37.70
2019-04-05T08:58:12.908Z,37.60
2019-04-05T09:00:47.788Z,37.60
2019-04-05T09:03:23.263Z,37.60
2019-04-05T09:05:59.004Z,37.50
2019-04-05T09:08:35.951Z,37.50
2019-04-05T09:11:11.480Z,37.60
2019-04-05T09:13:47.732Z,37.50
2019-04-05T09:16:24.148Z,37.50
2019-04-05T09:18:58.790Z,37.50
2019-04-05T09:21:34.441Z,37.50
2019-04-05T09:24:09.889Z,37.50
2019-04-05T09:26:44.429Z,37.50
2019-04-05T09:29:20.206Z,37.50
2019-04-05T09:31:54.911Z,37.40
2019-04-05T09:34:30.394Z,37.40
2019-04-05T09:37:05.228Z,37.40
2019-04-05T09:39:39.702Z,37.30
2019-04-05T09:42:14.596Z,37.20
2019-04-05T09:44:49.190Z,37.20
2019-04-05T09:47:23.881Z,37.10
2019-04-05T09:49:58.178Z,37.10
2019-04-05T09:52:32.875Z,37.00
2019-04-05T09:55:09.809Z,36.90
2019-04-05T09:57:44.519Z,36.90
2019-04-05T10:00:26.340Z,36.80
2019-04-05T10:03:00.991Z,36.70
2019-04-05T10:05:36.599Z,36.60
2019-04-05T10:08:13.472Z,36.60
2019-04-05T10:10:47.760Z,36.60
2019-04-05T10:13:22.217Z,36.50
2019-04-05T10:15:56.975Z,36.50
2019-04-05T10:18:32.892Z,36.40
2019-04-05T10:21:08.222Z,36.40
2019-04-05T10:23:43.976Z,36.30
2019-04-05T10:26:18.811Z,36.30
2019-04-05T10:28:53.240Z,36.20
2019-04-05T10:31:27.715Z,36.10
2019-04-05T10:34:02.313Z,36.10
2019-04-05T10:36:37.533Z,36.00
2019-04-05T10:39:14.111Z,36.00
2019-04-05T10:42:02.454Z,35.90
2019-04-05T10:44:25.367Z,35.90
2019-04-05T10:46:59.894Z,35.80
2019-04-05T10:49:34.244Z,35.80
2019-04-05T10:52:08.865Z,35.80
2019-04-05T10:54:44.517Z,35.70
2019-04-05T10:57:19.387Z,35.60
2019-04-05T10:59:54.153Z,35.60
2019-04-05T11:02:28.798Z,35.60
2019-04-05T11:05:04.083Z,35.50
2019-04-05T11:07:38.512Z,35.40
2019-04-05T11:10:14.272Z,35.40
2019-04-05T11:12:50.232Z,35.40
2019-04-05T11:15:25.032Z,35.30
2019-04-05T11:17:59.247Z,35.20
2019-04-05T11:20:33.827Z,35.20
2019-04-05T11:23:10.638Z,35.10
2019-04-05T11:25:46.457Z,35.00
2019-04-05T11:28:21.701Z,35.00
2019-04-05T11:30:56.304Z,34.90
2019-04-05T11:33:30.875Z,34.80
2019-04-05T11:36:05.468Z,34.70
2019-04-05T11:38:40.069Z,34.60
2019-04-05T11:41:14.544Z,34.50
2019-04-05T11:43:48.943Z,34.50
2019-04-05T11:46:23.634Z,34.40
2019-04-05T11:48:57.669Z,34.30
2019-04-05T11:51:32.313Z,34.30
2019-04-05T11:54:06.583Z,34.20
2019-04-05T11:56:41.135Z,34.20
2019-04-05T11:59:17.412Z,34.10
2019-04-05T12:01:57.455Z,34.10
2019-04-05T12:04:31.993Z,34.00
2019-04-05T12:07:07.538Z,34.00
2019-04-05T12:09:42.727Z,33.90
2019-04-05T12:12:18.024Z,34.00
2019-04-05T12:14:52.732Z,33.90
2019-04-05T12:17:27.163Z,33.80
2019-04-05T12:20:02.729Z,33.80
2019-04-05T12:22:37.903Z,33.80
2019-04-05T12:25:12.501Z,33.80
2019-04-05T12:27:47.165Z,33.70
2019-04-05T12:30:23.057Z,33.70
2019-04-05T12:32:57.610Z,33.70
2019-04-05T12:35:32.215Z,33.70
2019-04-05T12:38:07.144Z,33.60
2019-04-05T12:40:42.408Z,33.60
2019-04-05T12:43:16.599Z,33.60
2019-04-05T12:45:51.607Z,33.50
2019-04-05T12:48:26.426Z,33.50
2019-04-05T12:51:01.695Z,33.50
2019-04-05T12:53:36.756Z,33.50
2019-04-05T12:56:11.450Z,33.40
2019-04-05T12:58:46.024Z,33.40
2019-04-05T13:01:20.687Z,33.40
2019-04-05T13:03:57.321Z,33.40
2019-04-05T13:06:31.132Z,33.30
2019-04-05T13:09:06.366Z,33.30
2019-04-05T13:11:42.010Z,33.30
2019-04-05T13:14:16.892Z,33.30
2019-04-05T13:16:51.148Z,33.30
2019-04-05T13:19:25.745Z,33.30
2019-04-05T13:22:02.730Z,33.30
2019-04-05T13:24:39.499Z,33.30
2019-04-05T13:27:12.734Z,33.30
2019-04-05T13:29:49.187Z,33.20
2019-04-05T13:32:23.224Z,33.20
2019-04-05T13:34:57.623Z,33.20
2019-04-05T13:37:32.099Z,33.20
2019-04-05T13:40:06.810Z,33.20
2019-04-05T13:42:41.294Z,33.20
2019-04-05T13:45:16.851Z,33.10
2019-04-05T13:47:51.356Z,33.10
2019-04-05T13:50:27.048Z,33.10
2019-04-05T13:53:02.604Z,33.10
2019-04-05T13:55:38.530Z,33.00
2019-04-05T13:58:13.435Z,33.00
2019-04-05T14:00:49.818Z,33.00
2019-04-05T14:03:24.835Z,33.00
2019-04-05T14:05:59.455Z,33.00
2019-04-05T14:08:33.975Z,33.00
2019-04-05T14:11:10.483Z,33.00
2019-04-05T14:14:03.589Z,33.00
2019-04-05T14:16:42.601Z,33.00
2019-04-05T14:19:18.282Z,33.00
2019-04-05T14:21:53.899Z,32.90
2019-04-05T14:24:27.944Z,32.90
2019-04-05T14:27:03.664Z,32.90
2019-04-05T14:29:38.558Z,32.90
2019-04-05T14:32:20.885Z,32.80
2019-04-05T14:34:48.665Z,32.80
2019-04-05T14:37:24.967Z,32.80
2019-04-05T14:39:59.640Z,32.80
2019-04-05T14:42:34.981Z,32.80
2019-04-05T14:45:10.345Z,32.80
2019-04-05T14:47:45.986Z,32.80
2019-04-05T14:50:21.958Z,32.70
2019-04-05T14:52:56.055Z,32.70
2019-04-05T14:55:30.679Z,32.70
2019-04-05T14:58:06.400Z,32.70
2019-04-05T15:00:40.915Z,32.60
2019-04-05T15:03:16.270Z,32.70
2019-04-05T15:05:50.759Z,32.60
2019-04-05T15:08:25.096Z,32.60
2019-04-05T15:10:59.970Z,32.60
2019-04-05T15:13:35.513Z,32.60
2019-04-05T15:16:13.551Z,32.60
2019-04-05T15:18:45.903Z,32.50
2019-04-05T15:21:20.393Z,32.50
2019-04-05T15:23:54.546Z,32.50
2019-04-05T15:26:29.286Z,32.40
2019-04-05T15:29:05.489Z,32.40
2019-04-05T15:31:39.876Z,32.40
2019-04-05T15:34:15.564Z,32.40
2019-04-05T15:36:52.013Z,32.40
2019-04-05T15:39:28.575Z,32.40
2019-04-05T15:42:04.768Z,32.40
2019-04-05T15:44:39.114Z,32.30
2019-04-05T15:47:13.764Z,32.40
2019-04-05T15:49:51.829Z,32.40
2019-04-05T15:52:27.905Z,32.30
2019-04-05T15:55:01.733Z,32.30
2019-04-05T15:57:39.457Z,32.30
2019-04-05T16:00:16.927Z,32.30
2019-04-05T16:02:52.260Z,32.30
2019-04-05T16:05:26.839Z,32.30
2019-04-05T16:08:02.292Z,32.20
2019-04-05T16:10:36.877Z,32.30
2019-04-05T16:13:11.210Z,32.20
2019-04-05T16:15:45.860Z,32.20
2019-04-05T16:18:21.383Z,32.20
2019-04-05T16:20:56.838Z,32.20
2019-04-05T16:23:31.386Z,32.10
2019-04-05T16:26:06.794Z,32.10
2019-04-05T16:28:42.158Z,32.10
2019-04-05T16:31:18.486Z,32.10
2019-04-05T16:33:54.035Z,32.10
2019-04-05T16:36:31.104Z,32.00
2019-04-05T16:39:09.177Z,32.00
2019-04-05T16:41:45.430Z,32.00
2019-04-05T16:44:20.017Z,31.90
2019-04-05T16:46:55.737Z,31.90
2019-04-05T16:49:30.586Z,31.80
2019-04-05T16:52:05.085Z,31.80
2019-04-05T16:54:39.511Z,31.80
2019-04-05T16:57:16.020Z,31.70
2019-04-05T16:59:51.410Z,31.70
2019-04-05T17:02:25.723Z,31.70
2019-04-05T17:05:03.561Z,31.70
2019-04-05T17:07:38.235Z,31.70
2019-04-05T17:10:13.057Z,31.70
2019-04-05T17:12:47.406Z,31.70
2019-04-05T17:15:22.007Z,31.70
2019-04-05T17:17:56.615Z,31.70
2019-04-05T17:20:31.250Z,31.70
2019-04-05T17:23:08.023Z,31.60
2019-04-05T17:25:43.421Z,31.60
2019-04-05T17:28:18.134Z,31.60
2019-04-05T17:30:52.485Z,31.50
2019-04-05T17:33:27.111Z,31.50
2019-04-05T17:36:01.933Z,31.40
2019-04-05T17:38:36.438Z,31.40
2019-04-05T17:41:10.891Z,31.40
2019-04-05T17:43:46.246Z,31.40
2019-04-05T17:46:20.618Z,31.30
2019-04-05T17:48:55.041Z,31.30
2019-04-05T17:51:29.259Z,31.30
2019-04-05T17:54:04.143Z,31.30
2019-04-05T17:56:39.371Z,31.30
2019-04-05T17:59:13.791Z,31.30
2019-04-05T18:01:48.053Z,31.30
2019-04-05T18:04:23.705Z,31.30
2019-04-05T18:06:59.515Z,31.30
2019-04-05T18:09:34.329Z,31.30
2019-04-05T18:12:10.221Z,31.30
2019-04-05T18:14:44.685Z,31.30
2019-04-05T18:17:20.135Z,31.30
2019-04-05T18:19:54.633Z,31.20
2019-04-05T18:22:29.464Z,31.20
2019-04-05T18:25:04.084Z,31.20
2019-04-05T18:27:38.277Z,31.20
2019-04-05T18:30:12.968Z,31.20
2019-04-05T18:32:47.670Z,31.20
2019-04-05T18:35:22.294Z,31.10
2019-04-05T18:37:56.921Z,31.10
2019-04-05T18:40:40.039Z,31.10
2019-04-05T18:43:07.483Z,31.10
2019-04-05T18:45:43.296Z,31.10
2019-04-05T18:48:17.998Z,31.10
2019-04-05T18:50:53.203Z,31.10
2019-04-05T18:53:37.082Z,31.10
2019-04-05T18:56:03.727Z,31.10
2019-04-05T18:58:37.952Z,31.10
2019-04-05T19:01:12.622Z,31.10
2019-04-05T19:03:46.897Z,31.10
2019-04-05T19:06:23.375Z,31.10
2019-04-05T19:08:59.773Z,31.10
2019-04-05T19:11:34.365Z,31.10
2019-04-05T19:14:08.921Z,31.10
2019-04-05T19:16:43.318Z,31.10
2019-04-05T19:19:18.056Z,31.10
2019-04-05T19:21:52.465Z,31.10
2019-04-05T19:24:26.942Z,31.10
2019-04-05T19:27:01.215Z,31.10
2019-04-05T19:29:35.434Z,31.10
2019-04-05T19:50:22.228Z,31.00
2019-04-05T19:52:56.647Z,31.00
2019-04-05T19:55:30.795Z,30.90
2019-04-05T19:58:05.372Z,30.90
2019-04-05T20:00:39.990Z,30.90
2019-04-05T20:03:14.410Z,30.80
2019-04-05T20:05:48.579Z,30.80
2019-04-05T20:08:25.153Z,30.80
2019-04-05T20:10:59.571Z,30.80
2019-04-05T20:13:34.138Z,30.70
2019-04-05T20:16:08.683Z,30.70
2019-04-05T20:18:43.293Z,30.70
2019-04-05T20:21:17.722Z,30.70
2019-04-05T20:23:52.541Z,30.70
2019-04-05T20:26:27.065Z,30.70
2019-04-05T20:29:03.520Z,30.70
2019-04-05T20:31:37.959Z,30.70
2019-04-05T20:34:13.464Z,30.70
2019-04-05T20:36:47.863Z,30.70
2019-04-05T20:39:22.507Z,30.70
2019-04-05T20:41:57.524Z,30.70
2019-04-05T20:44:32.913Z,30.60
2019-04-05T20:47:25.491Z,30.60
2019-04-05T20:49:59.890Z,30.60
2019-04-05T20:52:34.501Z,30.50
2019-04-05T20:55:11.619Z,30.50
2019-04-05T20:57:46.256Z,30.50
2019-04-05T21:00:20.833Z,30.50
2019-04-05T21:02:54.989Z,30.50
2019-04-05T21:05:29.579Z,30.50
2019-04-05T21:08:04.257Z,30.50
2019-04-05T21:10:38.647Z,30.50
2019-04-05T21:13:13.271Z,30.50
2019-04-05T21:15:47.887Z,30.50
2019-04-05T21:18:24.358Z,30.50
2019-04-05T21:20:59.086Z,30.60
2019-04-05T21:23:33.208Z,30.60
2019-04-05T21:26:07.488Z,30.60
2019-04-05T21:28:42.095Z,30.60
2019-04-05T21:31:16.729Z,30.60
2019-04-05T21:33:52.109Z,30.50
2019-04-05T21:36:26.792Z,30.50
2019-04-05T21:39:01.331Z,30.50
2019-04-05T21:41:35.706Z,30.50
2019-04-05T21:44:10.737Z,30.50
2019-04-05T21:46:45.499Z,30.50
2019-04-05T21:49:20.336Z,30.50
2019-04-05T21:51:54.781Z,30.40
2019-04-05T21:54:29.915Z,30.40
2019-04-05T21:57:04.482Z,30.40
2019-04-05T21:59:39.188Z,30.50
2019-04-05T22:02:13.784Z,30.50
2019-04-05T22:04:48.076Z,30.40
2019-04-05T22:07:23.735Z,30.50
2019-04-05T22:09:59.217Z,30.50
2019-04-05T22:12:34.769Z,30.50
2019-04-05T22:15:09.227Z,30.50
2019-04-05T22:17:43.467Z,30.50
2019-04-05T22:20:18.824Z,30.50
2019-04-05T22:22:53.196Z,30.50
2019-04-05T22:25:27.811Z,30.50
2019-04-05T22:28:04.321Z,30.50
2019-04-05T22:30:39.179Z,30.50
2019-04-05T22:33:13.577Z,30.60
2019-04-05T22:35:48.072Z,30.50
2019-04-05T22:38:23.276Z,30.50
2019-04-05T22:40:57.716Z,30.60
2019-04-05T22:43:32.063Z,30.50
2019-04-05T22:46:06.794Z,30.60
2019-04-05T22:48:41.548Z,30.50
2019-04-05T22:51:17.474Z,30.60
2019-04-05T22:53:54.413Z,30.60
2019-04-05T22:56:28.780Z,30.60
2019-04-05T22:59:03.006Z,30.60
2019-04-05T23:01:37.509Z,30.60
2019-04-05T23:04:12.171Z,30.60
2019-04-05T23:06:47.584Z,30.50
2019-04-05T23:09:24.080Z,30.60
2019-04-05T23:11:58.060Z,30.60
2019-04-05T23:14:33.429Z,30.60
2019-04-05T23:17:08.898Z,30.60
2019-04-05T23:19:43.199Z,30.60
2019-04-05T23:22:17.522Z,30.60
2019-04-05T23:24:52.030Z,30.60
2019-04-05T23:27:26.671Z,30.60
2019-04-05T23:30:00.972Z,30.60
2019-04-05T23:32:35.538Z,30.60
2019-04-05T23:35:10.366Z,30.60
2019-04-05T23:37:45.905Z,30.60
2019-04-05T23:40:20.797Z,30.60
2019-04-05T23:42:55.159Z,30.50
2019-04-05T23:45:29.903Z,30.60
2019-04-05T23:48:04.721Z,30.60
2019-04-05T23:50:39.129Z,30.70
2019-04-05T23:53:14.591Z,30.70
2019-04-05T23:55:49.029Z,30.70
2019-04-05T23:58:23.313Z,30.80
